createdAt,value
2022-12-17T00:02:33.636Z,46.47
2022-12-17T00:05:19.739Z,48.33
2022-12-17T00:08:05.756Z,46.30
2022-12-17T00:10:51.733Z,46.60
2022-12-17T00:13:39.213Z,48.40
2022-12-17T00:16:25.883Z,47.90
2022-12-17T00:19:13.393Z,46.90
2022-12-17T00:21:59.484Z,46.93
2022-12-17T00:24:45.733Z,48.50
2022-12-17T00:27:31.992Z,46.60
2022-12-17T00:30:18.062Z,42.20
2022-12-17T00:33:04.011Z,44.30
2022-12-17T00:35:51.513Z,45.67
2022-12-17T00:38:37.904Z,48.20
2022-12-17T00:41:24.083Z,46.03
2022-12-17T00:44:11.352Z,43.70
2022-12-17T00:46:57.355Z,46.13
2022-12-17T00:49:44.603Z,44.13
2022-12-17T00:52:31.894Z,43.10
2022-12-17T00:55:17.702Z,43.27
2022-12-17T00:58:04.076Z,44.73
2022-12-17T01:00:50.130Z,44.80
2022-12-17T01:03:36.593Z,43.20
2022-12-17T01:06:25.912Z,46.40
2022-12-17T01:09:12.991Z,43.03
2022-12-17T01:11:59.341Z,44.63
2022-12-17T01:14:46.142Z,41.10
2022-12-17T01:17:32.049Z,42.67
2022-12-17T01:20:29.673Z,44.33
2022-12-17T01:23:26.818Z,42.73
2022-12-17T01:26:15.021Z,41.83
2022-12-17T01:29:01.414Z,43.20
2022-12-17T01:31:47.406Z,43.30
2022-12-17T01:34:35.440Z,41.87
2022-12-17T01:37:22.707Z,40.27
2022-12-17T01:40:08.639Z,42.40
2022-12-17T01:43:01.089Z,44.10
2022-12-17T01:45:52.129Z,41.67
2022-12-17T01:48:50.839Z,42.33
2022-12-17T01:51:37.682Z,43.97
2022-12-17T01:54:24.405Z,43.70
2022-12-17T01:57:10.597Z,42.77
2022-12-17T02:00:04.563Z,42.37
2022-12-17T02:03:08.238Z,40.13
2022-12-17T02:06:02.527Z,39.97
2022-12-17T02:08:56.703Z,41.27
2022-12-17T02:11:52.043Z,41.47
2022-12-17T02:14:44.236Z,39.07
2022-12-17T02:17:42.225Z,41.33
2022-12-17T02:20:38.994Z,40.37
2022-12-17T02:23:32.551Z,40.40
2022-12-17T02:26:22.566Z,39.43
2022-12-17T02:29:11.256Z,39.40
2022-12-17T02:31:59.535Z,39.83
2022-12-17T02:34:57.098Z,39.73
2022-12-17T02:37:42.788Z,39.10
2022-12-17T02:40:29.461Z,39.53
2022-12-17T02:43:16.439Z,38.53
2022-12-17T02:46:05.130Z,39.13
2022-12-17T02:48:51.858Z,39.07
2022-12-17T02:51:38.157Z,37.97
2022-12-17T02:54:24.466Z,38.93
2022-12-17T02:57:10.135Z,40.10
2022-12-17T02:59:55.688Z,37.90
2022-12-17T03:02:44.054Z,37.90
2022-12-17T03:05:44.920Z,38.43
2022-12-17T03:08:31.833Z,38.17
2022-12-17T03:11:17.933Z,38.03
2022-12-17T03:14:03.642Z,38.70
2022-12-17T03:16:49.813Z,38.30
2022-12-17T03:19:36.666Z,38.87
2022-12-17T03:22:22.375Z,38.50
2022-12-17T03:25:07.974Z,37.90
2022-12-17T03:27:53.513Z,37.27
2022-12-17T03:30:39.502Z,34.80
2022-12-17T03:33:27.028Z,37.10
2022-12-17T03:36:14.008Z,35.37
2022-12-17T03:38:59.662Z,36.00
2022-12-17T03:41:45.413Z,34.30
2022-12-17T03:44:31.056Z,32.97
2022-12-17T03:47:16.845Z,32.37
2022-12-17T03:50:02.370Z,31.17
2022-12-17T03:52:49.611Z,32.13
2022-12-17T03:55:35.568Z,32.60
2022-12-17T03:58:26.773Z,32.63
2022-12-17T04:01:12.581Z,30.00
2022-12-17T04:03:58.264Z,30.50
2022-12-17T04:06:43.957Z,29.43
2022-12-17T04:09:31.028Z,31.73
2022-12-17T04:12:16.806Z,31.30
2022-12-17T04:15:02.719Z,30.77
2022-12-17T04:17:48.338Z,32.90
2022-12-17T04:20:34.068Z,32.13
2022-12-17T04:23:18.971Z,31.37
2022-12-17T04:26:05.900Z,32.10
2022-12-17T04:28:51.638Z,32.10
2022-12-17T04:31:37.270Z,31.60
2022-12-17T04:34:23.233Z,32.93
2022-12-17T04:37:08.869Z,31.43
2022-12-17T04:39:54.705Z,30.53
2022-12-17T04:42:41.765Z,30.73
2022-12-17T04:45:27.920Z,30.93
2022-12-17T04:48:20.245Z,30.77
2022-12-17T04:51:05.910Z,31.53
2022-12-17T04:53:51.667Z,31.40
2022-12-17T04:56:37.351Z,30.20
2022-12-17T04:59:24.480Z,31.60
2022-12-17T05:02:10.578Z,31.07
2022-12-17T05:04:56.184Z,29.83
2022-12-17T05:07:42.078Z,29.90
2022-12-17T05:10:28.235Z,29.03
2022-12-17T05:13:26.464Z,31.23
2022-12-17T05:16:16.185Z,30.57
2022-12-17T05:19:01.828Z,29.50
2022-12-17T05:21:47.633Z,29.90
2022-12-17T05:24:33.669Z,30.43
2022-12-17T05:27:19.212Z,30.30
2022-12-17T05:30:05.078Z,30.07
2022-12-17T05:32:52.647Z,28.77
2022-12-17T05:35:38.404Z,31.10
2022-12-17T05:38:40.247Z,30.60
2022-12-17T05:41:26.225Z,29.93
2022-12-17T05:44:12.178Z,30.90
2022-12-17T05:46:57.811Z,29.17
2022-12-17T05:49:50.138Z,31.83
2022-12-17T05:52:36.024Z,30.43
2022-12-17T05:55:21.814Z,31.77
2022-12-17T05:58:07.335Z,31.43
2022-12-17T06:00:53.410Z,31.53
2022-12-17T06:03:39.703Z,31.37
2022-12-17T06:06:26.885Z,30.90
2022-12-17T06:09:12.800Z,30.93
2022-12-17T06:12:12.923Z,31.10
2022-12-17T06:14:58.606Z,31.33
2022-12-17T06:17:44.196Z,31.77
2022-12-17T06:20:29.973Z,31.83
2022-12-17T06:23:20.474Z,30.80
2022-12-17T06:26:06.265Z,32.53
2022-12-17T06:28:52.168Z,33.27
2022-12-17T06:31:46.361Z,34.33
2022-12-17T06:34:32.111Z,34.03
2022-12-17T06:37:17.786Z,33.30
2022-12-17T06:40:04.698Z,34.67
2022-12-17T06:42:50.305Z,33.77
2022-12-17T06:45:36.249Z,32.80
2022-12-17T06:48:22.789Z,32.70
2022-12-17T06:51:09.301Z,33.10
2022-12-17T06:53:55.135Z,33.47
2022-12-17T06:56:41.946Z,34.37
2022-12-17T06:59:27.866Z,32.73
2022-12-17T07:02:13.706Z,34.30
2022-12-17T07:04:59.776Z,36.10
2022-12-17T07:07:45.555Z,34.40
2022-12-17T07:10:31.787Z,35.43
2022-12-17T07:13:24.154Z,33.93
2022-12-17T07:16:10.262Z,35.33
2022-12-17T07:18:56.325Z,33.87
2022-12-17T07:21:42.878Z,34.53
2022-12-17T07:24:29.000Z,34.87
2022-12-17T07:27:14.996Z,35.40
2022-12-17T07:30:01.862Z,34.50
2022-12-17T07:32:47.834Z,34.20
2022-12-17T07:35:33.667Z,36.93
2022-12-17T07:38:20.700Z,36.10
2022-12-17T07:41:06.435Z,36.70
2022-12-17T07:43:53.342Z,36.17
2022-12-17T07:46:40.814Z,36.43
2022-12-17T07:49:25.995Z,38.03
2022-12-17T07:52:12.288Z,37.60
2022-12-17T07:54:57.847Z,38.23
2022-12-17T07:57:44.818Z,36.57
2022-12-17T08:00:32.147Z,34.17
2022-12-17T08:03:31.829Z,34.37
2022-12-17T08:06:18.079Z,34.00
2022-12-17T08:09:03.835Z,33.10
2022-12-17T08:11:49.746Z,33.73
2022-12-17T08:14:35.377Z,37.17
2022-12-17T08:17:21.273Z,39.47
2022-12-17T08:20:08.680Z,36.73
2022-12-17T08:22:54.268Z,39.77
2022-12-17T08:25:40.298Z,36.57
2022-12-17T08:28:49.698Z,35.83
2022-12-17T08:31:32.967Z,37.57
2022-12-17T08:34:18.718Z,39.47
2022-12-17T08:37:05.579Z,38.90
2022-12-17T08:39:51.485Z,37.57
2022-12-17T08:42:37.086Z,38.43
2022-12-17T08:45:23.414Z,39.27
2022-12-17T08:48:17.638Z,38.07
2022-12-17T08:51:03.688Z,36.67
2022-12-17T08:53:50.511Z,36.23
2022-12-17T08:56:36.446Z,35.03
2022-12-17T08:59:22.489Z,35.67
2022-12-17T09:02:09.020Z,37.07
2022-12-17T09:04:55.166Z,37.53
2022-12-17T09:07:41.096Z,37.43
2022-12-17T09:10:28.717Z,37.67
2022-12-17T09:13:14.265Z,39.83
2022-12-17T09:16:00.202Z,39.03
2022-12-17T09:18:46.128Z,38.63
2022-12-17T09:21:31.698Z,39.57
2022-12-17T09:24:17.475Z,36.57
2022-12-17T09:27:05.097Z,39.43
2022-12-17T09:29:51.314Z,37.20
2022-12-17T09:32:37.184Z,36.93
2022-12-17T09:35:23.603Z,35.63
2022-12-17T09:38:11.246Z,35.20
2022-12-17T09:40:58.846Z,34.60
2022-12-17T09:43:54.026Z,33.60
2022-12-17T09:46:46.526Z,34.93
2022-12-17T09:49:36.726Z,36.63
2022-12-17T09:52:29.355Z,34.37
2022-12-17T09:55:15.264Z,35.50
2022-12-17T09:58:01.538Z,36.40
2022-12-17T10:00:48.468Z,34.67
2022-12-17T10:03:37.285Z,35.33
2022-12-17T10:06:29.348Z,36.80
2022-12-17T10:09:18.671Z,38.60
2022-12-17T10:12:04.841Z,37.83
2022-12-17T10:14:50.930Z,38.83
2022-12-17T10:17:40.117Z,37.03
2022-12-17T10:20:38.541Z,37.10
2022-12-17T10:23:36.416Z,39.13
2022-12-17T10:26:25.543Z,38.33
2022-12-17T10:29:21.346Z,37.13
2022-12-17T10:32:03.594Z,36.57
2022-12-17T10:35:04.978Z,35.13
2022-12-17T10:38:08.753Z,35.07
2022-12-17T10:41:00.108Z,33.50
2022-12-17T10:43:48.153Z,32.80
2022-12-17T10:46:44.711Z,31.83
2022-12-17T10:49:34.998Z,31.97
2022-12-17T10:52:25.419Z,31.27
2022-12-17T10:55:20.311Z,30.47
2022-12-17T10:58:10.484Z,31.23
2022-12-17T11:00:58.796Z,31.73
2022-12-17T11:03:48.117Z,32.13
2022-12-17T11:06:42.562Z,31.90
2022-12-17T11:09:43.077Z,30.60
2022-12-17T11:12:31.285Z,29.37
2022-12-17T11:15:26.088Z,31.60
2022-12-17T11:18:12.348Z,31.20
2022-12-17T11:21:07.915Z,32.93
2022-12-17T11:23:58.779Z,31.30
2022-12-17T11:26:49.067Z,31.83
2022-12-17T11:29:34.817Z,32.63
2022-12-17T11:32:58.907Z,33.07
2022-12-17T11:35:51.381Z,33.37
2022-12-17T11:39:04.600Z,34.00
2022-12-17T11:42:11.564Z,35.60
2022-12-17T11:45:11.070Z,34.97
2022-12-17T11:48:05.524Z,34.93
2022-12-17T11:50:57.827Z,33.57
2022-12-17T11:54:02.897Z,35.60
2022-12-17T11:56:54.175Z,35.27
2022-12-17T11:59:52.700Z,36.03
2022-12-17T12:03:01.739Z,35.53
2022-12-17T12:06:00.688Z,37.50
2022-12-17T12:08:48.476Z,37.47
2022-12-17T12:11:44.435Z,37.33
2022-12-17T12:14:53.237Z,37.30
2022-12-17T12:17:53.510Z,35.53
2022-12-17T12:20:53.382Z,35.40
2022-12-17T12:23:47.198Z,36.37
2022-12-17T12:26:36.881Z,35.20
2022-12-17T12:29:38.216Z,37.97
2022-12-17T12:32:28.924Z,36.57
2022-12-17T12:35:21.546Z,35.80
2022-12-17T12:38:07.238Z,36.83
2022-12-17T12:40:58.815Z,36.23
2022-12-17T12:43:49.301Z,35.07
2022-12-17T12:46:39.629Z,34.57
2022-12-17T12:49:33.304Z,33.30
2022-12-17T12:52:21.072Z,30.27
2022-12-17T12:55:12.406Z,33.07
2022-12-17T12:58:02.178Z,32.70
2022-12-17T13:00:57.937Z,30.73
2022-12-17T13:03:47.431Z,30.93
2022-12-17T13:06:37.568Z,34.53
2022-12-17T13:09:20.964Z,34.73
2022-12-17T13:11:50.847Z,31.80
2022-12-17T13:14:24.047Z,32.40
2022-12-17T13:16:56.012Z,31.67
2022-12-17T13:19:37.188Z,32.53
2022-12-17T13:22:13.007Z,32.17
2022-12-17T13:24:44.174Z,32.80
2022-12-17T13:27:31.209Z,32.27
2022-12-17T13:30:00.624Z,31.30
2022-12-17T13:32:33.414Z,33.10
2022-12-17T13:35:18.741Z,32.57
2022-12-17T13:37:58.409Z,31.47
2022-12-17T13:40:42.885Z,32.93
2022-12-17T13:43:18.407Z,33.00
2022-12-17T13:45:47.200Z,32.33
2022-12-17T13:48:23.202Z,33.43
2022-12-17T13:50:56.436Z,34.73
2022-12-17T13:53:24.779Z,34.47
2022-12-17T13:55:57.046Z,34.30
2022-12-17T13:58:27.771Z,33.27
2022-12-17T14:01:07.382Z,32.97
2022-12-17T14:04:04.310Z,34.63
2022-12-17T14:06:26.157Z,35.37
2022-12-17T14:08:57.335Z,33.30
2022-12-17T14:11:45.568Z,33.23
2022-12-17T14:14:28.550Z,33.00
2022-12-17T14:16:57.164Z,33.17
2022-12-17T14:19:26.355Z,31.90
2022-12-17T14:21:55.350Z,33.77
2022-12-17T14:24:27.339Z,31.33
2022-12-17T14:26:58.856Z,32.23
2022-12-17T14:29:28.969Z,31.93
2022-12-17T14:31:59.768Z,33.07
2022-12-17T14:34:28.293Z,32.93
2022-12-17T14:36:59.073Z,31.33
2022-12-17T14:39:30.078Z,31.30
2022-12-17T14:42:26.367Z,32.17
2022-12-17T14:44:56.226Z,30.27
2022-12-17T14:47:27.274Z,31.23
2022-12-17T14:50:02.109Z,31.13
2022-12-17T14:52:40.072Z,31.13
2022-12-17T14:55:33.834Z,30.00
2022-12-17T14:58:27.913Z,31.73
2022-12-17T15:01:00.636Z,31.53
2022-12-17T15:03:30.473Z,30.23
2022-12-17T15:06:00.402Z,31.97
2022-12-17T15:08:32.891Z,33.83
2022-12-17T15:11:01.390Z,33.63
2022-12-17T15:13:30.992Z,31.63
2022-12-17T15:15:59.354Z,32.03
2022-12-17T15:18:27.702Z,31.80
2022-12-17T15:20:56.226Z,32.10
2022-12-17T15:23:25.809Z,32.53
2022-12-17T15:25:55.045Z,30.17
2022-12-17T15:28:24.660Z,31.73
2022-12-17T15:30:54.393Z,31.60
2022-12-17T15:33:23.097Z,31.93
2022-12-17T15:35:51.496Z,31.27
2022-12-17T15:38:19.858Z,31.67
2022-12-17T15:40:48.165Z,32.30
2022-12-17T15:43:15.975Z,31.10
2022-12-17T15:45:46.294Z,28.67
2022-12-17T15:48:17.856Z,29.17
2022-12-17T15:50:46.177Z,29.23
2022-12-17T15:53:14.666Z,30.50
2022-12-17T15:55:43.216Z,30.57
2022-12-17T15:58:11.719Z,29.33
2022-12-17T16:00:40.068Z,30.10
2022-12-17T16:03:08.487Z,30.47
2022-12-17T16:05:38.484Z,30.93
2022-12-17T16:08:07.856Z,29.90
2022-12-17T16:10:36.184Z,29.27
2022-12-17T16:13:04.600Z,29.47
2022-12-17T16:15:33.449Z,28.40
2022-12-17T16:18:01.805Z,28.70
2022-12-17T16:20:29.986Z,27.87
2022-12-17T16:23:01.191Z,28.03
2022-12-17T16:25:29.686Z,29.10
2022-12-17T16:27:58.065Z,28.70
2022-12-17T16:30:26.480Z,28.43
2022-12-17T16:32:54.714Z,27.13
2022-12-17T16:35:24.002Z,30.30
2022-12-17T16:37:52.348Z,27.97
2022-12-17T16:40:22.087Z,29.10
2022-12-17T16:42:50.546Z,26.97
2022-12-17T16:45:19.618Z,29.20
2022-12-17T16:47:47.917Z,26.73
2022-12-17T16:50:16.952Z,28.40
2022-12-17T16:52:45.270Z,26.17
2022-12-17T16:55:13.615Z,25.97
2022-12-17T16:57:43.217Z,26.00
2022-12-17T17:00:13.230Z,26.33
2022-12-17T17:02:41.907Z,25.30
2022-12-17T17:05:10.509Z,25.63
2022-12-17T17:07:38.835Z,25.17
2022-12-17T17:10:07.873Z,25.10
2022-12-17T17:12:37.605Z,24.87
2022-12-17T17:15:08.380Z,24.33
2022-12-17T17:17:55.514Z,24.47
2022-12-17T17:20:24.863Z,24.93
2022-12-17T17:22:53.148Z,23.67
2022-12-17T17:25:22.254Z,23.37
2022-12-17T17:27:50.486Z,24.27
2022-12-17T17:30:20.228Z,23.77
2022-12-17T17:32:48.756Z,24.20
2022-12-17T17:35:17.105Z,24.20
2022-12-17T17:37:45.445Z,23.63
2022-12-17T17:40:14.457Z,25.33
2022-12-17T17:42:46.097Z,24.57
2022-12-17T17:45:17.099Z,24.37
2022-12-17T17:47:46.870Z,25.57
2022-12-17T17:50:15.164Z,23.90
2022-12-17T17:52:43.545Z,22.83
2022-12-17T17:55:11.907Z,21.87
2022-12-17T17:57:40.217Z,23.17
2022-12-17T18:00:09.424Z,22.37
2022-12-17T18:02:38.771Z,21.47
2022-12-17T18:05:08.975Z,21.13
2022-12-17T18:07:37.326Z,21.43
2022-12-17T18:10:06.268Z,21.20
2022-12-17T18:12:51.969Z,20.63
2022-12-17T18:15:20.267Z,20.27
2022-12-17T18:17:51.858Z,21.17
2022-12-17T18:20:21.473Z,19.93
2022-12-17T18:22:50.638Z,19.63
2022-12-17T18:25:20.099Z,19.70
2022-12-17T18:27:48.311Z,19.80
2022-12-17T18:30:17.340Z,19.90
2022-12-17T18:32:45.773Z,18.63
2022-12-17T18:35:13.985Z,20.37
2022-12-17T18:37:43.567Z,19.27
2022-12-17T18:40:12.528Z,20.03
2022-12-17T18:42:58.736Z,19.67
2022-12-17T18:45:27.025Z,19.37
2022-12-17T18:47:55.377Z,19.97
2022-12-17T18:50:23.669Z,19.50
2022-12-17T18:52:53.368Z,20.13
2022-12-17T18:55:21.695Z,19.20
2022-12-17T18:57:50.147Z,18.83
2022-12-17T19:00:18.733Z,18.87
2022-12-17T19:02:47.247Z,19.13
2022-12-17T19:05:15.747Z,18.57
2022-12-17T19:07:44.112Z,18.63
2022-12-17T19:10:13.706Z,20.07
2022-12-17T19:12:41.963Z,21.10
2022-12-17T19:15:10.969Z,20.17
2022-12-17T19:17:39.248Z,22.00
2022-12-17T19:20:08.364Z,21.77
2022-12-17T19:22:36.706Z,20.50
2022-12-17T19:25:05.444Z,22.03
2022-12-17T19:27:35.115Z,22.23
2022-12-17T19:30:03.411Z,20.93
2022-12-17T19:32:31.705Z,21.73
2022-12-17T19:35:00.067Z,21.20
2022-12-17T19:37:28.475Z,20.23
2022-12-17T19:39:56.779Z,19.43
2022-12-17T19:42:35.185Z,19.47
2022-12-17T19:45:07.125Z,19.73
2022-12-17T19:47:35.453Z,19.93
2022-12-17T19:50:03.815Z,19.90
2022-12-17T19:52:32.158Z,23.47
2022-12-17T19:55:00.439Z,21.57
2022-12-17T19:57:28.796Z,21.47
2022-12-17T19:59:57.160Z,23.10
2022-12-17T20:02:32.478Z,21.17
2022-12-17T20:05:01.803Z,22.00
2022-12-17T20:07:30.142Z,21.83
2022-12-17T20:09:58.460Z,21.93
2022-12-17T20:12:30.030Z,22.13
2022-12-17T20:14:58.279Z,22.70
2022-12-17T20:17:27.867Z,22.40
2022-12-17T20:19:57.973Z,22.00
2022-12-17T20:22:26.528Z,21.63
2022-12-17T20:24:54.925Z,23.00
2022-12-17T20:27:23.360Z,22.73
2022-12-17T20:29:51.667Z,22.70
2022-12-17T20:32:21.417Z,21.43
2022-12-17T20:34:51.684Z,21.90
2022-12-17T20:37:20.139Z,21.20
2022-12-17T20:39:48.388Z,22.00
2022-12-17T20:42:17.981Z,21.50
2022-12-17T20:44:51.577Z,22.43
2022-12-17T20:47:21.845Z,22.23
2022-12-17T20:49:51.483Z,20.67
2022-12-17T20:52:19.886Z,19.90
2022-12-17T20:54:49.441Z,20.93
2022-12-17T20:57:17.940Z,20.67
2022-12-17T20:59:46.333Z,20.07
2022-12-17T21:02:14.878Z,19.93
2022-12-17T21:04:43.269Z,20.07
2022-12-17T21:07:12.862Z,19.37
2022-12-17T21:09:41.696Z,21.77
2022-12-17T21:12:12.468Z,20.43
2022-12-17T21:14:41.037Z,21.27
2022-12-17T21:17:09.553Z,20.27
2022-12-17T21:19:38.174Z,20.93
2022-12-17T21:22:06.897Z,20.83
2022-12-17T21:24:41.726Z,20.80
2022-12-17T21:27:14.761Z,22.50
2022-12-17T21:29:43.606Z,22.17
2022-12-17T21:32:12.066Z,23.00
2022-12-17T21:34:40.743Z,22.90
2022-12-17T21:37:11.223Z,22.47
2022-12-17T21:39:41.094Z,22.83
2022-12-17T21:42:26.988Z,22.30
2022-12-17T21:44:55.323Z,21.70
2022-12-17T21:47:23.972Z,22.07
2022-12-17T21:49:52.293Z,23.57
2022-12-17T21:52:20.708Z,22.00
2022-12-17T21:54:50.252Z,21.80
2022-12-17T21:57:18.576Z,22.57
2022-12-17T21:59:46.936Z,21.70
2022-12-17T22:02:15.378Z,21.07
2022-12-17T22:04:44.205Z,21.57
2022-12-17T22:07:22.256Z,21.57
2022-12-17T22:10:25.739Z,21.83
2022-12-17T22:13:02.843Z,24.03
2022-12-17T22:15:34.464Z,22.23
2022-12-17T22:18:13.097Z,22.63
2022-12-17T22:20:41.418Z,24.90
2022-12-17T22:23:09.656Z,23.20
2022-12-17T22:25:40.458Z,23.07
2022-12-17T22:28:08.751Z,23.60
2022-12-17T22:30:54.629Z,24.30
2022-12-17T22:34:00.899Z,22.93
2022-12-17T22:38:21.578Z,23.13
2022-12-17T22:41:55.856Z,22.83
2022-12-17T22:44:32.403Z,23.80
2022-12-17T22:45:08.110Z,23.63
2022-12-17T22:47:37.114Z,22.40
2022-12-17T22:50:05.907Z,23.60
2022-12-17T22:52:34.767Z,23.17
2022-12-17T22:55:03.406Z,24.27
2022-12-17T22:57:37.423Z,23.37
2022-12-17T23:00:10.043Z,23.57
2022-12-17T23:02:38.613Z,23.10
2022-12-17T23:05:07.428Z,23.50
2022-12-17T23:07:35.878Z,23.87
2022-12-17T23:10:04.367Z,25.27
2022-12-17T23:12:52.624Z,22.70
2022-12-17T23:15:24.059Z,24.30
2022-12-17T23:17:54.194Z,23.80
2022-12-17T23:20:23.166Z,24.13
2022-12-17T23:22:51.577Z,24.37
2022-12-17T23:25:20.273Z,24.10
2022-12-17T23:27:50.463Z,25.43
2022-12-17T23:30:19.708Z,24.53
2022-12-17T23:32:48.318Z,24.27
2022-12-17T23:35:16.633Z,25.43
2022-12-17T23:37:45.065Z,25.83
2022-12-17T23:40:14.036Z,25.73
2022-12-17T23:42:42.396Z,24.97
2022-12-17T23:45:12.643Z,25.10
2022-12-17T23:47:42.169Z,25.73
2022-12-17T23:50:11.936Z,26.27
2022-12-17T23:52:40.484Z,27.00
2022-12-17T23:55:11.177Z,25.40
2022-12-17T23:57:39.562Z,26.20
